Time;durP1;ratioP1;P1;durP2;ratioP2;P2;SDS_P1;SDS_P2;PMS_P1;PMS_P2;Temp;Humidity;BMP_temperature;BMP_pressure;BME280_temperature;BME280_humidity;BME280_pressure;Samples;Min_cycle;Max_cycle;Signal;HPM_P1;HPM_P2
2022/03/20 00:00:12;;;;;;;34.08;19.50;;;3.50;99.90;;;;;;494085;241;27516;-72
2022/03/20 00:02:13;;;;;;;25.65;17.33;;;3.50;99.90;;;;;;494068;237;27521;-73
2022/03/20 00:04:14;;;;;;;32.38;20.10;;;3.50;99.90;;;;;;494117;241;28025;-73
2022/03/20 00:06:22;;;;;;;31.35;20.05;;;3.40;99.90;;;;;;494092;241;28048;-72
2022/03/20 00:08:23;;;;;;;30.35;19.45;;;3.40;99.90;;;;;;494109;241;27528;-71
2022/03/20 00:10:24;;;;;;;28.15;18.20;;;3.40;99.90;;;;;;494124;241;27907;-72
2022/03/20 00:12:26;;;;;;;31.50;19.77;;;3.40;99.90;;;;;;494141;241;28086;-72
2022/03/20 00:14:27;;;;;;;27.20;18.00;;;3.40;99.90;;;;;;494139;241;27959;-72
2022/03/20 00:16:29;;;;;;;30.35;18.65;;;3.40;99.90;;;;;;494147;241;27622;-72
2022/03/20 00:18:30;;;;;;;24.52;16.70;;;3.40;99.90;;;;;;494038;241;27518;-73
2022/03/20 00:20:31;;;;;;;26.95;17.40;;;3.40;99.90;;;;;;494126;241;27464;-73
2022/03/20 00:22:34;;;;;;;28.35;17.27;;;3.40;99.90;;;;;;494131;241;27623;-72
2022/03/20 00:24:34;;;;;;;26.27;16.70;;;3.50;99.90;;;;;;493977;241;29014;-72
2022/03/20 00:26:34;;;;;;;25.67;16.73;;;3.50;99.90;;;;;;494114;241;29083;-73
2022/03/20 00:28:36;;;;;;;23.20;15.90;;;3.50;99.90;;;;;;494132;241;27551;-71
2022/03/20 00:30:37;;;;;;;25.65;16.17;;;3.50;99.90;;;;;;494122;241;27494;-72
2022/03/20 00:32:38;;;;;;;21.95;14.87;;;3.50;99.90;;;;;;494128;241;27621;-72
2022/03/20 00:34:42;;;;;;;25.42;15.85;;;3.40;99.90;;;;;;494108;241;28725;-74
2022/03/20 00:36:43;;;;;;;22.48;14.77;;;3.30;99.90;;;;;;494139;241;27454;-71
2022/03/20 00:38:44;;;;;;;22.45;15.73;;;3.30;99.90;;;;;;494108;241;28017;-72
2022/03/20 00:40:46;;;;;;;29.35;17.73;;;3.40;99.90;;;;;;493719;241;27905;-72
2022/03/20 00:42:47;;;;;;;25.45;16.55;;;3.40;99.90;;;;;;494081;241;27563;-73
2022/03/20 00:44:48;;;;;;;21.62;15.68;;;3.40;99.90;;;;;;494104;241;27501;-73
2022/03/20 00:46:49;;;;;;;22.23;15.15;;;3.40;99.90;;;;;;494098;241;27462;-72
2022/03/20 00:48:51;;;;;;;23.77;15.88;;;3.40;99.90;;;;;;494077;241;27602;-72
2022/03/20 00:50:52;;;;;;;22.08;15.95;;;3.40;99.90;;;;;;494062;241;28448;-72
2022/03/20 00:52:58;;;;;;;23.40;15.70;;;3.50;99.90;;;;;;494102;241;28003;-72
2022/03/20 00:55:00;;;;;;;20.83;14.10;;;3.50;99.90;;;;;;494114;241;27461;-72
2022/03/20 00:57:05;;;;;;;22.55;15.18;;;3.50;99.90;;;;;;494100;241;27957;-72
2022/03/20 00:59:06;;;;;;;20.70;14.60;;;3.50;99.90;;;;;;494118;241;27528;-72
2022/03/20 01:01:09;;;;;;;22.67;14.00;;;3.60;99.90;;;;;;494036;239;27961;-72
2022/03/20 01:03:09;;;;;;;20.17;14.68;;;3.60;99.90;;;;;;493891;241;28070;-73
2022/03/20 01:05:10;;;;;;;21.60;14.65;;;3.60;99.90;;;;;;494059;241;27599;-72
2022/03/20 01:07:11;;;;;;;20.37;14.10;;;3.70;99.90;;;;;;494068;241;27922;-72
2022/03/20 01:09:13;;;;;;;23.58;15.30;;;3.80;99.90;;;;;;494071;241;27989;-72
2022/03/20 01:11:14;;;;;;;21.02;14.45;;;3.80;99.90;;;;;;494071;241;27458;-72
2022/03/20 01:13:15;;;;;;;17.75;13.40;;;3.80;99.90;;;;;;494029;241;27459;-72
2022/03/20 01:15:16;;;;;;;20.90;14.60;;;3.70;99.90;;;;;;494068;241;27619;-72
2022/03/20 01:17:18;;;;;;;21.60;14.77;;;3.70;99.90;;;;;;494068;241;27525;-72
2022/03/20 01:19:19;;;;;;;23.92;15.20;;;3.70;99.90;;;;;;494043;241;27592;-73
2022/03/20 01:21:20;;;;;;;21.83;14.95;;;3.70;99.90;;;;;;494098;241;27924;-72
2022/03/20 01:23:21;;;;;;;23.73;14.87;;;3.70;99.90;;;;;;494066;241;27949;-73
2022/03/20 01:25:32;;;;;;;25.48;14.60;;;3.70;99.90;;;;;;494070;239;28615;-72
2022/03/20 01:27:33;;;;;;;26.67;15.15;;;3.80;99.90;;;;;;494110;241;27490;-72
2022/03/20 01:29:34;;;;;;;19.92;14.15;;;3.80;99.90;;;;;;494041;241;27904;-72
2022/03/20 01:31:36;;;;;;;21.17;13.73;;;3.80;99.90;;;;;;494080;241;28063;-73
2022/03/20 01:33:37;;;;;;;24.33;15.15;;;3.70;99.90;;;;;;494085;241;27501;-73
2022/03/20 01:35:38;;;;;;;24.33;15.45;;;3.70;99.90;;;;;;494092;241;27526;-72
2022/03/20 01:37:43;;;;;;;29.10;14.27;;;3.70;99.90;;;;;;494084;241;27482;-72
2022/03/20 01:39:41;;;;;;;21.55;13.90;;;3.70;99.90;;;;;;493827;241;27562;-72
2022/03/20 01:41:43;;;;;;;20.52;13.20;;;3.70;99.90;;;;;;494108;241;27524;-73
2022/03/20 01:43:43;;;;;;;19.55;13.23;;;3.80;99.90;;;;;;493986;241;28637;-76
2022/03/20 01:45:44;;;;;;;24.23;15.18;;;3.80;99.90;;;;;;494082;241;27961;-72
2022/03/20 01:47:49;;;;;;;22.77;14.10;;;3.80;99.90;;;;;;494113;241;27512;-73
2022/03/20 01:49:49;;;;;;;21.33;13.98;;;3.90;99.90;;;;;;493995;241;27556;-72
2022/03/20 01:54:11;;;;;;;21.50;14.00;;;3.90;99.90;;;;;;494120;241;28037;-73
2022/03/20 01:56:12;;;;;;;22.75;14.20;;;3.90;99.90;;;;;;494099;241;27510;-74
2022/03/20 01:58:13;;;;;;;24.45;15.35;;;3.90;99.90;;;;;;494117;241;28018;-73
2022/03/20 02:00:15;;;;;;;23.45;14.23;;;3.90;99.90;;;;;;494068;241;28058;-72
2022/03/20 02:02:16;;;;;;;18.83;13.85;;;3.80;99.90;;;;;;494075;241;27578;-72
2022/03/20 02:04:17;;;;;;;22.25;15.23;;;3.80;99.90;;;;;;494105;241;27460;-73
2022/03/20 02:06:26;;;;;;;22.92;14.70;;;3.80;99.90;;;;;;494073;241;27537;-73
2022/03/20 02:08:27;;;;;;;20.75;14.15;;;3.70;99.90;;;;;;494039;241;27538;-72
2022/03/20 02:10:35;;;;;;;20.98;14.10;;;3.70;99.90;;;;;;494131;241;28005;-72
2022/03/20 02:12:29;;;;;;;22.73;15.15;;;3.60;99.90;;;;;;493546;241;27945;-72
2022/03/20 02:14:31;;;;;;;23.55;14.55;;;3.70;99.90;;;;;;494119;241;28051;-73
2022/03/20 02:16:32;;;;;;;21.33;14.98;;;3.60;99.90;;;;;;494083;241;27556;-72
2022/03/20 02:18:34;;;;;;;22.00;14.25;;;3.60;99.90;;;;;;494065;241;27489;-72
2022/03/20 02:20:34;;;;;;;20.35;13.50;;;3.50;99.90;;;;;;493996;241;27945;-72
2022/03/20 02:22:36;;;;;;;24.83;14.63;;;3.50;99.90;;;;;;494087;241;29147;-72
2022/03/20 02:24:41;;;;;;;21.60;14.30;;;3.50;99.90;;;;;;494085;241;27626;-72
2022/03/20 02:26:38;;;;;;;19.65;13.82;;;3.50;99.90;;;;;;493765;241;27522;-72
2022/03/20 02:28:39;;;;;;;22.55;13.40;;;3.50;99.90;;;;;;494067;241;27608;-72
2022/03/20 02:30:41;;;;;;;20.37;13.75;;;3.40;99.90;;;;;;494093;241;28110;-74
2022/03/20 02:32:42;;;;;;;23.10;14.43;;;3.40;99.90;;;;;;494084;241;29027;-72
2022/03/20 02:34:45;;;;;;;22.15;14.55;;;3.40;99.90;;;;;;494048;241;27483;-72
2022/03/20 02:36:45;;;;;;;22.37;14.70;;;3.40;99.90;;;;;;493956;241;27473;-72
2022/03/20 02:38:46;;;;;;;21.55;13.45;;;3.30;99.90;;;;;;494084;241;27524;-72
2022/03/20 02:40:54;;;;;;;22.30;13.95;;;3.30;99.90;;;;;;493962;241;28063;-72
2022/03/20 02:42:54;;;;;;;22.87;15.25;;;3.30;99.90;;;;;;494060;241;27459;-72
2022/03/20 02:45:03;;;;;;;20.77;14.07;;;3.30;99.90;;;;;;494080;241;27946;-74
2022/03/20 02:47:05;;;;;;;19.17;13.40;;;3.30;99.90;;;;;;494087;241;27458;-72
2022/03/20 02:49:05;;;;;;;23.42;15.00;;;3.30;99.90;;;;;;494052;241;28084;-73
2022/03/20 02:51:06;;;;;;;18.35;13.40;;;3.30;99.90;;;;;;493705;241;28419;-72
2022/03/20 02:53:14;;;;;;;20.52;13.70;;;3.40;99.90;;;;;;493573;241;27498;-73
2022/03/20 02:55:12;;;;;;;21.77;13.98;;;3.40;99.90;;;;;;493686;241;27509;-72
2022/03/20 02:57:13;;;;;;;21.62;14.38;;;3.40;99.90;;;;;;494053;241;27465;-72
2022/03/20 02:59:14;;;;;;;22.60;14.90;;;3.50;99.90;;;;;;494074;241;27474;-72
2022/03/20 03:01:17;;;;;;;20.67;14.15;;;3.50;99.90;;;;;;494094;241;27975;-72
2022/03/20 03:03:17;;;;;;;21.12;14.55;;;3.50;99.90;;;;;;493999;241;27966;-72
2022/03/20 03:05:18;;;;;;;24.63;14.10;;;3.50;99.90;;;;;;494052;241;27500;-73
2022/03/20 03:07:19;;;;;;;22.80;14.35;;;3.50;99.90;;;;;;494066;241;27528;-72
2022/03/20 03:11:40;;;;;;;22.65;14.38;;;3.60;99.90;;;;;;494067;241;27520;-73
2022/03/20 03:13:42;;;;;;;23.20;14.87;;;3.60;99.90;;;;;;494061;241;27516;-75
2022/03/20 03:15:43;;;;;;;19.83;13.75;;;3.70;99.90;;;;;;494100;241;27460;-72
2022/03/20 03:17:44;;;;;;;25.83;14.90;;;3.70;99.90;;;;;;494067;241;27489;-78
2022/03/20 03:19:46;;;;;;;22.33;14.55;;;3.70;99.90;;;;;;494099;241;27958;-72
2022/03/20 03:21:47;;;;;;;20.55;13.98;;;3.70;99.90;;;;;;494118;241;27924;-72
2022/03/20 03:23:48;;;;;;;21.73;14.23;;;3.80;99.90;;;;;;494119;241;28084;-72
2022/03/20 03:25:49;;;;;;;22.67;14.18;;;3.80;99.90;;;;;;494121;241;27576;-72
2022/03/20 03:27:51;;;;;;;22.70;14.38;;;3.80;99.90;;;;;;494062;241;27612;-72
2022/03/20 03:29:52;;;;;;;22.65;14.90;;;3.80;99.90;;;;;;494085;241;27501;-72
2022/03/20 03:31:53;;;;;;;24.02;14.98;;;3.80;99.90;;;;;;494110;241;27476;-72
2022/03/20 03:36:14;;;;;;;21.98;13.98;;;3.90;99.90;;;;;;494109;241;27508;-72
2022/03/20 03:38:15;;;;;;;23.92;14.95;;;3.90;99.90;;;;;;494129;241;27558;-73
2022/03/20 03:40:17;;;;;;;28.00;15.25;;;3.90;99.90;;;;;;494097;241;27500;-72
2022/03/20 03:42:19;;;;;;;21.30;13.80;;;3.90;99.90;;;;;;494085;241;27488;-72
2022/03/20 03:44:19;;;;;;;22.50;14.52;;;3.90;99.90;;;;;;493974;241;27973;-72
2022/03/20 03:46:20;;;;;;;20.65;14.32;;;3.90;99.90;;;;;;494104;241;29227;-72
2022/03/20 03:48:22;;;;;;;21.50;14.70;;;4.00;99.90;;;;;;494120;237;27463;-72
2022/03/20 03:50:23;;;;;;;20.60;12.98;;;4.00;99.90;;;;;;494105;237;27518;-72
2022/03/20 03:52:24;;;;;;;19.65;12.55;;;4.00;99.90;;;;;;494075;241;27464;-72
2022/03/20 03:54:25;;;;;;;19.27;12.70;;;4.00;99.90;;;;;;494071;241;27477;-73
2022/03/20 03:56:27;;;;;;;16.20;12.35;;;4.00;99.90;;;;;;494096;237;27504;-75
2022/03/20 03:58:28;;;;;;;19.75;13.40;;;4.00;99.90;;;;;;494079;241;27478;-73
2022/03/20 04:00:32;;;;;;;20.90;14.18;;;4.00;99.90;;;;;;494110;241;27976;-73
2022/03/20 04:02:30;;;;;;;22.33;14.48;;;4.00;99.90;;;;;;493864;241;27916;-72
2022/03/20 04:04:32;;;;;;;21.80;14.15;;;4.00;99.90;;;;;;494104;241;27494;-73
2022/03/20 04:06:34;;;;;;;19.27;13.73;;;4.10;99.90;;;;;;494122;241;27484;-73
2022/03/20 04:08:34;;;;;;;20.33;13.10;;;4.10;99.90;;;;;;494091;237;28002;-73
2022/03/20 04:10:35;;;;;;;18.60;12.45;;;4.10;99.90;;;;;;494129;241;27997;-73
2022/03/20 04:12:37;;;;;;;18.75;11.23;;;4.20;99.90;;;;;;494106;241;27473;-72
2022/03/20 04:14:38;;;;;;;19.23;12.45;;;4.20;99.90;;;;;;494065;241;27571;-72
2022/03/20 04:16:39;;;;;;;17.73;12.73;;;4.10;99.90;;;;;;494158;239;27600;-74
2022/03/20 04:18:41;;;;;;;18.08;12.63;;;4.20;99.90;;;;;;494164;241;27932;-72
2022/03/20 04:20:42;;;;;;;18.62;12.90;;;4.20;99.90;;;;;;494104;241;27988;-73
2022/03/20 04:24:51;;;;;;;15.93;11.82;;;4.20;99.90;;;;;;487135;241;27484;-72
2022/03/20 04:26:53;;;;;;;19.98;12.43;;;4.20;99.90;;;;;;494078;241;28095;-73
2022/03/20 04:28:54;;;;;;;14.80;10.82;;;4.20;99.90;;;;;;494077;241;27509;-72
2022/03/20 04:30:55;;;;;;;16.17;10.38;;;4.20;99.90;;;;;;494064;241;27613;-73
2022/03/20 04:32:58;;;;;;;18.92;11.38;;;4.20;99.90;;;;;;494112;241;27503;-73
2022/03/20 04:34:58;;;;;;;15.30;10.82;;;4.20;99.90;;;;;;493993;241;27500;-73
2022/03/20 04:36:59;;;;;;;18.33;12.30;;;4.20;99.90;;;;;;494113;237;27467;-72
2022/03/20 04:39:00;;;;;;;16.90;11.20;;;4.20;99.90;;;;;;494103;237;28052;-74
2022/03/20 04:41:01;;;;;;;13.85;10.20;;;4.20;99.90;;;;;;494068;241;27940;-73
2022/03/20 04:43:03;;;;;;;16.85;12.23;;;4.20;99.90;;;;;;494084;241;27600;-72
2022/03/20 04:45:04;;;;;;;20.58;13.00;;;4.20;99.90;;;;;;494104;241;27521;-72
2022/03/20 04:47:05;;;;;;;19.35;12.50;;;4.20;99.90;;;;;;494118;239;27554;-72
2022/03/20 04:58:31;;;;;;;19.27;12.82;;;4.20;99.90;;;;;;494079;241;27522;-73
2022/03/20 05:00:32;;;;;;;17.52;13.48;;;4.20;99.90;;;;;;494076;241;27474;-72
2022/03/20 05:02:33;;;;;;;18.55;12.07;;;4.20;99.90;;;;;;494101;241;27923;-72
2022/03/20 05:04:35;;;;;;;20.73;13.07;;;4.20;99.90;;;;;;494084;241;29181;-75
2022/03/20 05:06:36;;;;;;;15.25;11.75;;;4.30;99.90;;;;;;494078;237;27461;-73
2022/03/20 05:08:37;;;;;;;15.70;11.75;;;4.30;99.90;;;;;;494125;237;27611;-72
2022/03/20 05:15:18;;;;;;;21.17;14.25;;;4.30;99.90;;;;;;494081;239;27516;-72
2022/03/20 05:17:19;;;;;;;18.33;13.55;;;4.30;99.90;;;;;;494098;241;27497;-72
2022/03/20 05:19:20;;;;;;;19.92;14.05;;;4.30;99.90;;;;;;494078;241;27503;-72
2022/03/20 05:21:21;;;;;;;19.77;12.52;;;4.30;99.90;;;;;;494080;241;27591;-73
2022/03/20 05:23:23;;;;;;;20.67;13.38;;;4.30;99.90;;;;;;494096;241;27998;-72
2022/03/20 05:25:24;;;;;;;21.60;13.80;;;4.40;99.90;;;;;;494096;241;27973;-73
2022/03/20 05:27:25;;;;;;;18.23;12.73;;;4.40;99.90;;;;;;494081;241;27482;-74
2022/03/20 05:29:26;;;;;;;20.33;12.73;;;4.40;99.90;;;;;;494089;241;27473;-73
2022/03/20 05:31:28;;;;;;;19.12;11.98;;;4.30;99.90;;;;;;494066;241;27604;-73
2022/03/20 05:33:31;;;;;;;17.70;12.40;;;4.30;99.90;;;;;;494093;241;27475;-72
2022/03/20 05:35:31;;;;;;;19.05;12.10;;;4.30;99.90;;;;;;493918;241;27512;-72
2022/03/20 05:37:31;;;;;;;19.17;12.05;;;4.40;99.90;;;;;;494016;241;28081;-74
2022/03/20 05:39:33;;;;;;;18.50;12.20;;;4.30;99.90;;;;;;494122;241;27481;-73
2022/03/20 05:41:47;;;;;;;21.20;12.45;;;4.30;99.90;;;;;;494103;241;27577;-75
2022/03/20 05:43:52;;;;;;;16.73;12.10;;;4.30;99.90;;;;;;494050;241;27474;-73
2022/03/20 05:45:49;;;;;;;19.02;12.35;;;4.20;99.90;;;;;;493776;241;27917;-73
2022/03/20 05:47:52;;;;;;;19.35;12.88;;;4.20;99.90;;;;;;494088;241;28059;-74
2022/03/20 05:49:54;;;;;;;17.77;12.75;;;4.20;99.90;;;;;;494089;241;27548;-72
2022/03/20 05:51:56;;;;;;;17.12;12.45;;;4.20;99.90;;;;;;494085;241;28045;-72
2022/03/20 05:53:57;;;;;;;18.92;11.52;;;4.20;99.90;;;;;;494130;241;27615;-73
2022/03/20 05:58:20;;;;;;;20.58;12.27;;;4.20;99.90;;;;;;494116;241;28030;-70
2022/03/20 06:00:21;;;;;;;18.95;12.65;;;4.20;99.90;;;;;;494098;241;27456;-73
2022/03/20 06:02:23;;;;;;;19.75;13.05;;;4.20;99.90;;;;;;494123;241;27598;-73
2022/03/20 06:04:24;;;;;;;19.48;12.35;;;4.20;99.90;;;;;;494116;241;27463;-75
2022/03/20 06:06:25;;;;;;;17.67;12.32;;;4.20;99.90;;;;;;494094;241;28012;-73
2022/03/20 06:08:29;;;;;;;18.50;13.10;;;4.20;99.90;;;;;;494084;241;29215;-73
2022/03/20 06:10:32;;;;;;;17.92;12.57;;;4.20;99.90;;;;;;494051;241;27549;-75
2022/03/20 06:12:32;;;;;;;18.33;12.73;;;4.20;99.90;;;;;;494048;241;27890;-73
2022/03/20 06:14:35;;;;;;;22.15;14.02;;;4.30;99.90;;;;;;494045;241;28030;-73
2022/03/20 06:16:34;;;;;;;19.60;12.52;;;4.30;99.90;;;;;;493899;241;27502;-73
2022/03/20 06:18:36;;;;;;;19.42;12.95;;;4.30;99.90;;;;;;494099;241;27457;-74
2022/03/20 06:20:37;;;;;;;18.58;13.35;;;4.30;99.90;;;;;;494080;241;27942;-73
2022/03/20 06:22:49;;;;;;;17.75;12.45;;;4.30;99.90;;;;;;494070;241;27975;-73
2022/03/20 06:24:48;;;;;;;19.95;13.05;;;4.30;99.90;;;;;;493907;241;27520;-70
2022/03/20 06:26:50;;;;;;;19.00;12.37;;;4.30;99.90;;;;;;494083;241;27523;-70
2022/03/20 06:28:51;;;;;;;21.15;13.98;;;4.40;99.90;;;;;;494084;241;27528;-75
2022/03/20 06:30:52;;;;;;;18.55;12.27;;;4.40;99.90;;;;;;494092;241;27963;-72
2022/03/20 06:32:57;;;;;;;20.50;12.90;;;4.40;99.90;;;;;;494062;241;28084;-71
2022/03/20 06:34:58;;;;;;;21.33;12.77;;;4.50;99.90;;;;;;494056;241;27492;-71
2022/03/20 06:36:59;;;;;;;18.75;12.15;;;4.50;99.90;;;;;;494083;241;27952;-71
2022/03/20 06:39:00;;;;;;;17.05;12.25;;;4.60;99.90;;;;;;494086;241;27522;-71
2022/03/20 06:41:02;;;;;;;19.87;12.25;;;4.60;99.90;;;;;;494089;241;28008;-72
2022/03/20 06:43:03;;;;;;;21.80;13.13;;;4.60;99.90;;;;;;494074;241;27479;-71
2022/03/20 06:45:04;;;;;;;24.45;14.63;;;4.60;99.90;;;;;;494107;241;27469;-71
2022/03/20 06:47:06;;;;;;;23.27;14.32;;;4.60;99.90;;;;;;494028;241;27489;-72
2022/03/20 06:49:08;;;;;;;25.20;14.95;;;4.60;99.90;;;;;;494105;241;27455;-71
2022/03/20 06:51:08;;;;;;;23.98;16.00;;;4.70;99.90;;;;;;494031;241;27514;-71
2022/03/20 06:53:11;;;;;;;23.48;14.77;;;4.70;99.90;;;;;;494105;241;28683;-71
2022/03/20 06:55:15;;;;;;;20.60;13.70;;;4.80;99.90;;;;;;493987;241;27993;-71
2022/03/20 06:57:14;;;;;;;20.33;14.75;;;4.90;99.90;;;;;;493707;241;27514;-72
2022/03/20 06:59:16;;;;;;;23.90;14.93;;;4.90;99.90;;;;;;494114;241;27621;-71
2022/03/20 07:01:16;;;;;;;22.27;14.55;;;4.80;99.90;;;;;;494033;239;27973;-71
2022/03/20 07:03:18;;;;;;;18.40;13.45;;;4.90;99.90;;;;;;494130;241;28684;-71
2022/03/20 07:05:19;;;;;;;21.67;13.05;;;5.10;99.90;;;;;;494112;241;27473;-72
2022/03/20 07:07:20;;;;;;;22.52;14.07;;;5.10;99.90;;;;;;494112;241;27492;-73
2022/03/20 07:09:21;;;;;;;17.98;12.68;;;5.30;99.90;;;;;;494132;241;27506;-72
2022/03/20 07:11:25;;;;;;;19.12;12.93;;;5.40;99.90;;;;;;494098;241;27526;-72
2022/03/20 07:15:46;;;;;;;18.17;12.43;;;5.60;99.90;;;;;;494137;241;27916;-72
2022/03/20 07:17:48;;;;;;;16.60;11.85;;;5.80;99.90;;;;;;494115;241;27502;-72
2022/03/20 07:19:48;;;;;;;15.55;11.50;;;5.90;99.90;;;;;;494107;241;27485;-72
2022/03/20 07:21:49;;;;;;;17.80;12.73;;;5.90;99.90;;;;;;494152;241;27564;-72
2022/03/20 07:23:54;;;;;;;19.02;12.75;;;6.00;99.90;;;;;;494123;241;28069;-72
2022/03/20 07:30:33;;;;;;;20.42;13.18;;;6.10;99.90;;;;;;494111;241;27511;-72
2022/03/20 07:32:34;;;;;;;19.05;13.98;;;6.10;99.90;;;;;;494115;241;28188;-74
2022/03/20 07:34:39;;;;;;;22.45;14.45;;;6.20;99.90;;;;;;494131;241;27924;-72
2022/03/20 07:36:39;;;;;;;20.52;14.45;;;6.10;99.90;;;;;;494070;241;27493;-73
2022/03/20 07:38:40;;;;;;;20.45;13.85;;;6.10;99.90;;;;;;494144;241;28030;-72
2022/03/20 07:40:41;;;;;;;22.48;16.12;;;6.20;99.90;;;;;;494135;241;27490;-72
2022/03/20 07:42:43;;;;;;;22.60;14.00;;;6.20;99.90;;;;;;494103;241;27983;-77
2022/03/20 07:44:44;;;;;;;22.17;14.82;;;6.20;99.90;;;;;;494181;241;27542;-72
2022/03/20 07:46:47;;;;;;;22.40;14.82;;;6.30;99.90;;;;;;494152;241;27994;-73
2022/03/20 07:48:50;;;;;;;25.45;14.27;;;6.30;99.90;;;;;;494161;241;27458;-72
2022/03/20 07:50:50;;;;;;;22.00;14.30;;;6.40;99.90;;;;;;494056;241;28032;-72
2022/03/20 07:52:51;;;;;;;20.87;14.77;;;6.50;99.90;;;;;;494154;241;27525;-76
2022/03/20 07:54:52;;;;;;;21.43;15.10;;;6.70;99.90;;;;;;494167;241;28523;-72
2022/03/20 07:56:54;;;;;;;21.17;14.10;;;6.80;99.90;;;;;;494155;241;28816;-73
2022/03/20 07:58:57;;;;;;;19.57;14.33;;;6.90;99.90;;;;;;494150;241;28803;-72
2022/03/20 08:00:58;;;;;;;20.27;13.82;;;6.90;99.90;;;;;;494128;241;28298;-73
2022/03/20 08:03:00;;;;;;;22.40;16.10;;;6.90;99.90;;;;;;494126;241;27980;-75
2022/03/20 08:05:01;;;;;;;26.80;16.53;;;7.00;99.90;;;;;;494167;241;28820;-72
2022/03/20 08:07:02;;;;;;;22.10;14.97;;;7.10;99.90;;;;;;494120;241;28069;-74
2022/03/20 08:09:03;;;;;;;28.37;16.87;;;7.30;99.90;;;;;;494170;241;27937;-75
2022/03/20 08:11:04;;;;;;;25.20;16.30;;;7.40;99.90;;;;;;494153;241;28036;-74
2022/03/20 08:13:06;;;;;;;25.37;15.93;;;7.50;99.90;;;;;;494092;241;27954;-75
2022/03/20 08:17:15;;;;;;;22.20;15.20;;;7.70;99.90;;;;;;467279;254;27982;-73
2022/03/20 08:19:16;;;;;;;23.97;15.43;;;7.80;99.90;;;;;;467079;254;28222;-73
2022/03/20 08:21:17;;;;;;;18.80;13.53;;;7.80;99.90;;;;;;467055;254;28397;-74
2022/03/20 08:23:18;;;;;;;20.00;14.40;;;7.80;99.90;;;;;;467033;254;28379;-73
2022/03/20 08:25:26;;;;;;;21.20;15.00;;;7.80;99.90;;;;;;467036;254;28022;-73
2022/03/20 08:27:27;;;;;;;24.90;16.27;;;7.80;99.90;;;;;;467055;254;27983;-73
2022/03/20 08:29:28;;;;;;;26.67;15.80;;;7.80;99.90;;;;;;467080;254;27870;-77
2022/03/20 08:31:29;;;;;;;22.77;15.50;;;7.90;99.90;;;;;;467050;254;28082;-74
2022/03/20 08:33:35;;;;;;;24.03;15.50;;;8.20;99.90;;;;;;467046;254;28412;-73
2022/03/20 08:35:36;;;;;;;26.40;17.67;;;8.30;99.90;;;;;;467086;254;27812;-74
2022/03/20 08:37:37;;;;;;;22.20;15.60;;;8.30;99.90;;;;;;467062;254;28477;-73
2022/03/20 08:39:38;;;;;;;27.67;16.47;;;8.30;99.90;;;;;;467053;254;28491;-75
2022/03/20 08:41:40;;;;;;;24.07;15.70;;;8.20;99.90;;;;;;467074;254;28379;-73
2022/03/20 08:43:41;;;;;;;24.60;16.90;;;8.20;99.90;;;;;;467053;254;28054;-73
2022/03/20 08:45:43;;;;;;;26.13;16.87;;;8.20;99.90;;;;;;467086;254;27992;-73
2022/03/20 08:47:49;;;;;;;23.37;15.90;;;8.10;99.90;;;;;;467104;254;28023;-74
2022/03/20 08:49:51;;;;;;;27.83;16.90;;;8.20;99.90;;;;;;467084;254;28061;-73
2022/03/20 08:51:52;;;;;;;21.33;15.40;;;8.20;99.90;;;;;;467055;254;28418;-74
2022/03/20 08:53:53;;;;;;;23.67;16.07;;;8.20;99.90;;;;;;467059;254;28419;-73
2022/03/20 08:55:54;;;;;;;22.70;16.63;;;8.20;99.90;;;;;;467068;254;28649;-74
2022/03/20 08:57:56;;;;;;;29.40;16.43;;;8.30;99.90;;;;;;467103;254;27985;-74
2022/03/20 09:00:03;;;;;;;22.77;16.47;;;8.30;99.90;;;;;;467077;254;27862;-74
2022/03/20 09:02:04;;;;;;;25.50;16.23;;;8.30;99.90;;;;;;467105;254;27982;-74
2022/03/20 09:04:06;;;;;;;23.20;15.57;;;8.40;99.90;;;;;;467108;254;28418;-73
2022/03/20 09:06:07;;;;;;;28.10;16.23;;;8.40;99.90;;;;;;466997;254;27942;-74
2022/03/20 09:08:08;;;;;;;25.43;15.50;;;8.50;99.90;;;;;;467047;254;27957;-74
2022/03/20 09:10:09;;;;;;;22.47;16.03;;;8.50;99.90;;;;;;467101;254;28061;-75
2022/03/20 09:14:15;;;;;;;24.40;16.10;;;8.50;99.90;;;;;;467076;254;28299;-74
2022/03/20 09:20:55;;;;;;;26.23;18.03;;;8.40;99.90;;;;;;467049;254;27951;-72
2022/03/20 09:22:56;;;;;;;26.30;17.37;;;8.50;99.90;;;;;;467094;254;28139;-74
2022/03/20 09:25:04;;;;;;;22.83;16.87;;;8.70;99.90;;;;;;467085;254;28081;-74
2022/03/20 09:27:05;;;;;;;22.83;16.70;;;8.90;99.90;;;;;;467067;254;28082;-72
2022/03/20 09:29:06;;;;;;;27.87;18.10;;;9.00;99.90;;;;;;467011;254;28229;-74
2022/03/20 09:31:10;;;;;;;29.83;17.30;;;9.10;99.90;;;;;;467014;254;28394;-74
2022/03/20 09:33:11;;;;;;;34.23;18.97;;;9.00;99.90;;;;;;467057;254;27936;-72
2022/03/20 09:35:21;;;;;;;29.87;19.30;;;8.90;99.90;;;;;;467038;254;28043;-72
2022/03/20 09:37:23;;;;;;;29.60;19.43;;;8.80;99.90;;;;;;467079;254;28041;-72
2022/03/20 09:39:29;;;;;;;25.17;17.00;;;8.90;99.90;;;;;;467035;254;28561;-74
2022/03/20 09:41:33;;;;;;;29.50;18.83;;;8.90;99.90;;;;;;467010;254;28542;-74
2022/03/20 09:43:35;;;;;;;28.50;19.27;;;8.80;99.90;;;;;;467046;254;27693;-75
2022/03/20 09:45:36;;;;;;;32.03;18.40;;;8.80;99.90;;;;;;467079;254;28487;-77
2022/03/20 09:47:37;;;;;;;28.67;17.83;;;8.80;99.90;;;;;;467060;254;27709;-74
2022/03/20 09:49:40;;;;;;;27.93;17.90;;;8.80;99.90;;;;;;467078;254;28291;-74
2022/03/20 09:51:42;;;;;;;28.07;17.60;;;8.70;99.90;;;;;;467024;254;27488;-72
2022/03/20 09:53:43;;;;;;;27.43;17.07;;;8.80;99.90;;;;;;467038;254;28454;-75
2022/03/20 09:55:45;;;;;;;28.60;17.80;;;8.90;99.90;;;;;;467073;254;28336;-75
2022/03/20 09:57:54;;;;;;;24.47;17.13;;;8.90;99.90;;;;;;467077;254;28402;-74
2022/03/20 09:59:56;;;;;;;28.00;17.90;;;8.90;99.90;;;;;;467072;254;27814;-74
2022/03/20 10:01:57;;;;;;;25.43;17.27;;;8.80;99.90;;;;;;467048;254;28297;-74
2022/03/20 10:03:58;;;;;;;24.37;16.70;;;8.90;99.90;;;;;;467079;254;28900;-73
2022/03/20 10:05:59;;;;;;;24.17;16.70;;;9.10;99.90;;;;;;467094;254;28059;-73
2022/03/20 10:10:25;;;;;;;21.50;15.50;;;9.50;99.90;;;;;;467110;254;27980;-72
2022/03/20 10:12:26;;;;;;;26.10;17.53;;;9.60;99.90;;;;;;467009;254;27955;-74
2022/03/20 10:14:31;;;;;;;23.47;15.97;;;9.50;99.90;;;;;;467103;254;27874;-72
2022/03/20 10:16:38;;;;;;;23.63;15.80;;;9.50;99.90;;;;;;466888;254;28588;-74
2022/03/20 10:18:39;;;;;;;21.40;14.53;;;9.50;99.90;;;;;;467126;254;28259;-72
2022/03/20 10:20:46;;;;;;;24.53;15.03;;;9.30;99.90;;;;;;467127;254;28497;-75
2022/03/20 10:22:45;;;;;;;24.70;16.30;;;9.20;99.90;;;;;;466925;254;27824;-72
2022/03/20 10:24:46;;;;;;;23.40;15.13;;;9.20;99.90;;;;;;467081;254;28145;-75
2022/03/20 10:26:47;;;;;;;22.00;14.60;;;9.30;99.90;;;;;;467049;254;28868;-74
2022/03/20 10:28:48;;;;;;;18.73;13.40;;;9.50;99.90;;;;;;467080;254;28332;-74
2022/03/20 10:30:49;;;;;;;18.30;13.03;;;9.70;99.90;;;;;;467092;254;27827;-74
2022/03/20 10:32:52;;;;;;;22.47;15.00;;;9.90;99.90;;;;;;467083;254;27854;-75
2022/03/20 10:34:53;;;;;;;18.97;13.37;;;9.90;99.90;;;;;;467057;255;28154;-74
2022/03/20 10:36:56;;;;;;;18.77;13.87;;;9.90;99.90;;;;;;467050;255;28639;-75
2022/03/20 10:38:58;;;;;;;21.33;14.10;;;10.10;99.90;;;;;;466962;255;28684;-76
2022/03/20 10:41:05;;;;;;;20.13;13.10;;;10.10;99.90;;;;;;467089;255;28690;-75
2022/03/20 10:43:06;;;;;;;21.03;14.43;;;10.00;99.90;;;;;;467086;255;27866;-74
2022/03/20 10:45:23;;;;;;;21.87;14.30;;;9.90;99.90;;;;;;467059;255;28549;-74
2022/03/20 10:47:26;;;;;;;21.40;12.63;;;9.90;99.90;;;;;;467079;255;28189;-74
2022/03/20 10:51:41;;;;;;;17.87;12.50;;;10.10;99.90;;;;;;467084;255;27991;-74
2022/03/20 10:53:57;;;;;;;21.83;13.67;;;10.20;99.90;;;;;;467056;255;28564;-75
2022/03/20 10:55:57;;;;;;;20.67;12.70;;;10.30;99.90;;;;;;467063;255;28216;-74
2022/03/20 10:57:58;;;;;;;18.93;13.40;;;10.60;99.90;;;;;;467052;254;28714;-75
2022/03/20 11:00:05;;;;;;;18.50;12.40;;;10.80;99.90;;;;;;467085;255;28493;-74
2022/03/20 11:02:08;;;;;;;20.13;13.23;;;10.80;99.90;;;;;;467064;255;28184;-74
2022/03/20 11:04:13;;;;;;;15.30;11.23;;;10.80;99.90;;;;;;466948;255;28804;-75
2022/03/20 11:06:15;;;;;;;17.03;11.50;;;11.00;99.90;;;;;;467076;255;28615;-74
2022/03/20 11:08:16;;;;;;;15.50;11.30;;;10.90;99.90;;;;;;467044;254;28611;-74
2022/03/20 11:10:32;;;;;;;18.40;12.03;;;10.70;99.90;;;;;;467052;255;28892;-75